sensor_id;sensor_type;location;lat;lon;timestamp;P1;durP1;ratioP1;P2;durP2;ratioP2
1991;SDS011;997;48.448;8.924;2023-08-17T03:02:10;16.03;;;9.30;;
1991;SDS011;997;48.448;8.924;2023-08-17T03:04:54;9.47;;;7.87;;
1991;SDS011;997;48.448;8.924;2023-08-17T03:07:31;7.67;;;7.00;;
1991;SDS011;997;48.448;8.924;2023-08-17T03:10:16;21.47;;;9.13;;
1991;SDS011;997;48.448;8.924;2023-08-17T03:12:52;16.73;;;6.50;;
1991;SDS011;997;48.448;8.924;2023-08-17T03:15:31;12.93;;;7.63;;
1991;SDS011;997;48.448;8.924;2023-08-17T03:20:57;21.10;;;7.00;;
1991;SDS011;997;48.448;8.924;2023-08-17T03:23:22;12.93;;;8.27;;
1991;SDS011;997;48.448;8.924;2023-08-17T03:25:51;10.23;;;8.30;;
1991;SDS011;997;48.448;8.924;2023-08-17T03:28:17;21.80;;;9.77;;
1991;SDS011;997;48.448;8.924;2023-08-17T03:30:43;16.43;;;8.43;;
1991;SDS011;997;48.448;8.924;2023-08-17T03:33:09;15.30;;;6.40;;
1991;SDS011;997;48.448;8.924;2023-08-17T03:35:34;14.07;;;6.53;;
1991;SDS011;997;48.448;8.924;2023-08-17T03:38:02;10.33;;;7.20;;
1991;SDS011;997;48.448;8.924;2023-08-17T03:40:27;19.03;;;7.30;;
1991;SDS011;997;48.448;8.924;2023-08-17T03:42:53;10.47;;;6.07;;
1991;SDS011;997;48.448;8.924;2023-08-17T03:45:19;19.43;;;7.30;;
1991;SDS011;997;48.448;8.924;2023-08-17T03:47:45;14.20;;;7.23;;
1991;SDS011;997;48.448;8.924;2023-08-17T03:50:11;8.70;;;6.97;;
1991;SDS011;997;48.448;8.924;2023-08-17T03:52:37;8.50;;;7.20;;
1991;SDS011;997;48.448;8.924;2023-08-17T03:55:02;7.67;;;6.90;;
1991;SDS011;997;48.448;8.924;2023-08-17T03:57:31;11.17;;;7.40;;
1991;SDS011;997;48.448;8.924;2023-08-17T03:59:57;8.07;;;7.07;;
1991;SDS011;997;48.448;8.924;2023-08-17T04:02:23;16.37;;;6.90;;
1991;SDS011;997;48.448;8.924;2023-08-17T04:04:49;8.07;;;7.20;;
1991;SDS011;997;48.448;8.924;2023-08-17T04:07:21;8.73;;;7.60;;
1991;SDS011;997;48.448;8.924;2023-08-17T04:09:48;9.23;;;7.73;;
1991;SDS011;997;48.448;8.924;2023-08-17T04:12:14;8.10;;;7.47;;
1991;SDS011;997;48.448;8.924;2023-08-17T04:14:40;10.70;;;7.10;;
1991;SDS011;997;48.448;8.924;2023-08-17T04:17:05;9.50;;;8.30;;
1991;SDS011;997;48.448;8.924;2023-08-17T04:19:33;10.20;;;7.30;;
1991;SDS011;997;48.448;8.924;2023-08-17T04:21:59;11.00;;;8.20;;
1991;SDS011;997;48.448;8.924;2023-08-17T04:24:25;9.47;;;7.63;;
1991;SDS011;997;48.448;8.924;2023-08-17T04:26:50;8.57;;;6.20;;
1991;SDS011;997;48.448;8.924;2023-08-17T04:29:16;8.80;;;6.30;;
1991;SDS011;997;48.448;8.924;2023-08-17T04:31:42;9.40;;;5.80;;
1991;SDS011;997;48.448;8.924;2023-08-17T04:34:07;7.50;;;6.80;;
1991;SDS011;997;48.448;8.924;2023-08-17T04:36:33;10.57;;;6.57;;
1991;SDS011;997;48.448;8.924;2023-08-17T04:38:59;7.47;;;5.73;;
1991;SDS011;997;48.448;8.924;2023-08-17T04:41:25;13.63;;;6.03;;
1991;SDS011;997;48.448;8.924;2023-08-17T04:43:50;10.67;;;7.53;;
1991;SDS011;997;48.448;8.924;2023-08-17T04:46:16;8.87;;;7.73;;
1991;SDS011;997;48.448;8.924;2023-08-17T04:48:41;8.87;;;6.53;;
1991;SDS011;997;48.448;8.924;2023-08-17T04:51:07;7.60;;;6.53;;
1991;SDS011;997;48.448;8.924;2023-08-17T04:53:33;7.57;;;6.80;;
1991;SDS011;997;48.448;8.924;2023-08-17T04:55:59;10.43;;;7.20;;
1991;SDS011;997;48.448;8.924;2023-08-17T04:58:24;9.43;;;6.43;;
1991;SDS011;997;48.448;8.924;2023-08-17T05:00:50;7.57;;;6.90;;
1991;SDS011;997;48.448;8.924;2023-08-17T05:03:16;6.57;;;6.07;;
1991;SDS011;997;48.448;8.924;2023-08-17T05:05:42;7.50;;;6.33;;
1991;SDS011;997;48.448;8.924;2023-08-17T05:08:07;7.73;;;6.63;;
1991;SDS011;997;48.448;8.924;2023-08-17T05:10:33;7.43;;;6.77;;
1991;SDS011;997;48.448;8.924;2023-08-17T05:12:59;7.93;;;6.13;;
1991;SDS011;997;48.448;8.924;2023-08-17T05:15:25;6.17;;;5.67;;
1991;SDS011;997;48.448;8.924;2023-08-17T05:17:50;11.90;;;7.90;;
1991;SDS011;997;48.448;8.924;2023-08-17T05:20:16;7.70;;;7.00;;
1991;SDS011;997;48.448;8.924;2023-08-17T05:22:42;7.47;;;6.67;;
1991;SDS011;997;48.448;8.924;2023-08-17T05:25:08;7.53;;;6.83;;
1991;SDS011;997;48.448;8.924;2023-08-17T05:27:33;7.13;;;6.43;;
1991;SDS011;997;48.448;8.924;2023-08-17T05:29:59;6.87;;;6.27;;
1991;SDS011;997;48.448;8.924;2023-08-17T05:32:25;6.13;;;5.37;;
1991;SDS011;997;48.448;8.924;2023-08-17T05:34:51;8.20;;;6.10;;
1991;SDS011;997;48.448;8.924;2023-08-17T05:37:16;10.17;;;7.90;;
1991;SDS011;997;48.448;8.924;2023-08-17T05:39:43;10.33;;;6.27;;
1991;SDS011;997;48.448;8.924;2023-08-17T05:42:08;7.17;;;5.93;;
1991;SDS011;997;48.448;8.924;2023-08-17T05:44:35;8.33;;;6.20;;
1991;SDS011;997;48.448;8.924;2023-08-17T05:47:00;8.60;;;5.63;;
1991;SDS011;997;48.448;8.924;2023-08-17T05:49:26;7.03;;;6.20;;
1991;SDS011;997;48.448;8.924;2023-08-17T05:51:52;7.43;;;6.63;;
1991;SDS011;997;48.448;8.924;2023-08-17T05:54:17;7.20;;;6.10;;
1991;SDS011;997;48.448;8.924;2023-08-17T05:56:43;6.93;;;6.10;;
1991;SDS011;997;48.448;8.924;2023-08-17T05:59:12;6.87;;;6.27;;
1991;SDS011;997;48.448;8.924;2023-08-17T06:01:39;9.00;;;6.40;;
1991;SDS011;997;48.448;8.924;2023-08-17T06:04:05;7.73;;;7.00;;
1991;SDS011;997;48.448;8.924;2023-08-17T06:06:31;11.67;;;7.13;;
1991;SDS011;997;48.448;8.924;2023-08-17T06:08:57;10.63;;;7.70;;
1991;SDS011;997;48.448;8.924;2023-08-17T06:11:22;9.80;;;8.20;;
1991;SDS011;997;48.448;8.924;2023-08-17T06:13:49;8.30;;;7.60;;
1991;SDS011;997;48.448;8.924;2023-08-17T06:16:15;10.93;;;8.80;;
1991;SDS011;997;48.448;8.924;2023-08-17T06:18:41;9.87;;;8.97;;
1991;SDS011;997;48.448;8.924;2023-08-17T06:21:06;14.23;;;8.60;;
1991;SDS011;997;48.448;8.924;2023-08-17T06:23:32;10.77;;;9.07;;
1991;SDS011;997;48.448;8.924;2023-08-17T06:25:59;12.10;;;9.17;;
1991;SDS011;997;48.448;8.924;2023-08-17T06:28:25;11.03;;;7.70;;
1991;SDS011;997;48.448;8.924;2023-08-17T06:30:55;13.80;;;11.20;;
1991;SDS011;997;48.448;8.924;2023-08-17T06:33:21;9.87;;;7.93;;
1991;SDS011;997;48.448;8.924;2023-08-17T06:35:47;9.63;;;8.60;;
1991;SDS011;997;48.448;8.924;2023-08-17T06:38:14;9.57;;;8.67;;
1991;SDS011;997;48.448;8.924;2023-08-17T06:40:40;8.47;;;7.67;;
1991;SDS011;997;48.448;8.924;2023-08-17T06:43:05;10.23;;;9.23;;
1991;SDS011;997;48.448;8.924;2023-08-17T06:45:31;10.10;;;8.63;;
1991;SDS011;997;48.448;8.924;2023-08-17T06:47:57;10.07;;;9.17;;
1991;SDS011;997;48.448;8.924;2023-08-17T06:50:23;9.03;;;8.10;;
1991;SDS011;997;48.448;8.924;2023-08-17T06:52:50;10.13;;;8.37;;
1991;SDS011;997;48.448;8.924;2023-08-17T06:55:15;9.80;;;8.70;;
1991;SDS011;997;48.448;8.924;2023-08-17T06:57:42;10.23;;;9.23;;
1991;SDS011;997;48.448;8.924;2023-08-17T07:00:07;9.23;;;8.40;;
1991;SDS011;997;48.448;8.924;2023-08-17T07:02:33;9.50;;;8.60;;
1991;SDS011;997;48.448;8.924;2023-08-17T07:04:59;9.87;;;8.87;;
1991;SDS011;997;48.448;8.924;2023-08-17T07:07:25;9.70;;;8.50;;
1991;SDS011;997;48.448;8.924;2023-08-17T07:09:51;9.43;;;8.43;;
1991;SDS011;997;48.448;8.924;2023-08-17T07:12:17;9.43;;;8.67;;
1991;SDS011;997;48.448;8.924;2023-08-17T07:14:44;10.50;;;9.17;;
1991;SDS011;997;48.448;8.924;2023-08-17T07:17:10;9.97;;;9.03;;
1991;SDS011;997;48.448;8.924;2023-08-17T07:19:35;9.87;;;8.87;;
1991;SDS011;997;48.448;8.924;2023-08-17T07:22:01;9.20;;;8.47;;
1991;SDS011;997;48.448;8.924;2023-08-17T07:24:27;9.90;;;8.97;;
1991;SDS011;997;48.448;8.924;2023-08-17T07:26:52;9.87;;;8.87;;
1991;SDS011;997;48.448;8.924;2023-08-17T07:29:18;10.10;;;9.20;;
1991;SDS011;997;48.448;8.924;2023-08-17T07:31:43;12.37;;;9.67;;
1991;SDS011;997;48.448;8.924;2023-08-17T07:34:09;11.33;;;10.23;;
1991;SDS011;997;48.448;8.924;2023-08-17T07:36:35;10.63;;;9.50;;
1991;SDS011;997;48.448;8.924;2023-08-17T07:39:01;10.87;;;9.93;;
1991;SDS011;997;48.448;8.924;2023-08-17T07:41:27;11.67;;;10.53;;
1991;SDS011;997;48.448;8.924;2023-08-17T07:46:44;10.80;;;9.90;;
1991;SDS011;997;48.448;8.924;2023-08-17T08:22:10;11.07;;;10.07;;
1991;SDS011;997;48.448;8.924;2023-08-17T08:46:18;11.97;;;11.07;;
1991;SDS011;997;48.448;8.924;2023-08-17T08:48:48;14.40;;;12.90;;
1991;SDS011;997;48.448;8.924;2023-08-17T08:51:19;14.37;;;12.90;;
1991;SDS011;997;48.448;8.924;2023-08-17T08:54:01;11.67;;;10.50;;
1991;SDS011;997;48.448;8.924;2023-08-17T08:56:32;12.23;;;9.70;;
1991;SDS011;997;48.448;8.924;2023-08-17T08:58:59;11.37;;;10.47;;
1991;SDS011;997;48.448;8.924;2023-08-17T09:01:27;12.20;;;11.10;;
1991;SDS011;997;48.448;8.924;2023-08-17T09:03:55;12.17;;;10.27;;
1991;SDS011;997;48.448;8.924;2023-08-17T09:06:23;11.67;;;10.10;;
1991;SDS011;997;48.448;8.924;2023-08-17T09:08:52;10.67;;;9.77;;
1991;SDS011;997;48.448;8.924;2023-08-17T09:11:17;13.27;;;11.97;;
1991;SDS011;997;48.448;8.924;2023-08-17T09:13:43;12.70;;;11.40;;
1991;SDS011;997;48.448;8.924;2023-08-17T09:16:09;12.30;;;11.20;;
1991;SDS011;997;48.448;8.924;2023-08-17T09:18:34;12.33;;;11.23;;
1991;SDS011;997;48.448;8.924;2023-08-17T09:21:00;11.20;;;10.20;;
1991;SDS011;997;48.448;8.924;2023-08-17T09:23:26;11.53;;;10.50;;
1991;SDS011;997;48.448;8.924;2023-08-17T09:25:52;11.47;;;10.47;;
1991;SDS011;997;48.448;8.924;2023-08-17T09:28:23;11.30;;;10.40;;
1991;SDS011;997;48.448;8.924;2023-08-17T09:33:20;10.87;;;9.77;;
1991;SDS011;997;48.448;8.924;2023-08-17T09:35:50;9.00;;;8.10;;
1991;SDS011;997;48.448;8.924;2023-08-17T09:38:16;10.00;;;9.20;;
1991;SDS011;997;48.448;8.924;2023-08-17T09:40:43;7.37;;;6.87;;
1991;SDS011;997;48.448;8.924;2023-08-17T09:43:09;8.83;;;8.03;;
1991;SDS011;997;48.448;8.924;2023-08-17T09:45:35;9.53;;;8.63;;
1991;SDS011;997;48.448;8.924;2023-08-17T09:48:03;7.77;;;7.10;;
1991;SDS011;997;48.448;8.924;2023-08-17T09:50:29;8.33;;;7.83;;
1991;SDS011;997;48.448;8.924;2023-08-17T09:52:54;8.60;;;7.77;;
1991;SDS011;997;48.448;8.924;2023-08-17T09:55:23;7.80;;;7.07;;
1991;SDS011;997;48.448;8.924;2023-08-17T09:57:50;7.40;;;6.90;;
1991;SDS011;997;48.448;8.924;2023-08-17T10:00:17;7.23;;;6.60;;
1991;SDS011;997;48.448;8.924;2023-08-17T10:02:46;8.10;;;7.27;;
1991;SDS011;997;48.448;8.924;2023-08-17T10:05:15;6.60;;;6.00;;
1991;SDS011;997;48.448;8.924;2023-08-17T10:07:53;6.87;;;6.27;;
1991;SDS011;997;48.448;8.924;2023-08-17T10:10:26;7.67;;;7.13;;
1991;SDS011;997;48.448;8.924;2023-08-17T10:15:32;6.37;;;5.87;;
1991;SDS011;997;48.448;8.924;2023-08-17T10:20:40;8.40;;;5.83;;
1991;SDS011;997;48.448;8.924;2023-08-17T10:23:12;7.37;;;6.77;;
1991;SDS011;997;48.448;8.924;2023-08-17T10:25:42;7.10;;;6.60;;
1991;SDS011;997;48.448;8.924;2023-08-17T10:28:09;7.13;;;6.53;;
1991;SDS011;997;48.448;8.924;2023-08-17T10:30:36;8.87;;;5.90;;
1991;SDS011;997;48.448;8.924;2023-08-17T10:33:03;6.83;;;6.33;;
1991;SDS011;997;48.448;8.924;2023-08-17T10:35:30;5.83;;;5.43;;
1991;SDS011;997;48.448;8.924;2023-08-17T10:38:00;10.13;;;6.53;;
1991;SDS011;997;48.448;8.924;2023-08-17T10:40:28;6.43;;;5.93;;
1991;SDS011;997;48.448;8.924;2023-08-17T10:42:59;6.70;;;6.10;;
1991;SDS011;997;48.448;8.924;2023-08-17T10:45:29;6.97;;;6.37;;
1991;SDS011;997;48.448;8.924;2023-08-17T10:50:32;7.10;;;6.40;;
1991;SDS011;997;48.448;8.924;2023-08-17T10:53:03;7.57;;;6.50;;
1991;SDS011;997;48.448;8.924;2023-08-17T10:55:41;6.87;;;6.30;;
1991;SDS011;997;48.448;8.924;2023-08-17T10:58:10;7.50;;;6.23;;
1991;SDS011;997;48.448;8.924;2023-08-17T11:00:39;6.90;;;6.40;;
1991;SDS011;997;48.448;8.924;2023-08-17T11:03:17;7.20;;;6.70;;
1991;SDS011;997;48.448;8.924;2023-08-17T11:11:01;6.83;;;6.17;;
1991;SDS011;997;48.448;8.924;2023-08-17T11:13:38;8.00;;;6.20;;
1991;SDS011;997;48.448;8.924;2023-08-17T11:16:05;6.03;;;5.63;;
1991;SDS011;997;48.448;8.924;2023-08-17T11:18:32;6.00;;;5.40;;
1991;SDS011;997;48.448;8.924;2023-08-17T11:20:58;5.73;;;5.33;;
1991;SDS011;997;48.448;8.924;2023-08-17T11:23:28;6.37;;;5.90;;
1991;SDS011;997;48.448;8.924;2023-08-17T11:25:54;6.53;;;5.93;;
1991;SDS011;997;48.448;8.924;2023-08-17T11:28:20;6.53;;;5.67;;
1991;SDS011;997;48.448;8.924;2023-08-17T11:30:56;6.20;;;5.70;;
1991;SDS011;997;48.448;8.924;2023-08-17T11:33:23;6.30;;;5.10;;
1991;SDS011;997;48.448;8.924;2023-08-17T11:35:50;6.43;;;5.40;;
1991;SDS011;997;48.448;8.924;2023-08-17T11:38:16;5.97;;;5.57;;
1991;SDS011;997;48.448;8.924;2023-08-17T11:40:41;5.57;;;5.17;;
1991;SDS011;997;48.448;8.924;2023-08-17T11:43:07;5.10;;;4.70;;
1991;SDS011;997;48.448;8.924;2023-08-17T11:45:33;5.60;;;5.20;;
1991;SDS011;997;48.448;8.924;2023-08-17T11:47:59;5.97;;;5.47;;
1991;SDS011;997;48.448;8.924;2023-08-17T11:50:25;5.53;;;5.03;;
1991;SDS011;997;48.448;8.924;2023-08-17T11:52:51;5.80;;;5.37;;
1991;SDS011;997;48.448;8.924;2023-08-17T11:55:17;5.23;;;4.83;;
1991;SDS011;997;48.448;8.924;2023-08-17T11:57:45;5.43;;;4.93;;
1991;SDS011;997;48.448;8.924;2023-08-17T12:00:16;7.00;;;4.90;;
1991;SDS011;997;48.448;8.924;2023-08-17T12:02:46;5.90;;;5.30;;
1991;SDS011;997;48.448;8.924;2023-08-17T12:05:13;4.67;;;4.37;;
1991;SDS011;997;48.448;8.924;2023-08-17T12:07:43;5.50;;;5.10;;
1991;SDS011;997;48.448;8.924;2023-08-17T12:10:10;5.47;;;4.97;;
1991;SDS011;997;48.448;8.924;2023-08-17T12:12:36;5.43;;;5.03;;
1991;SDS011;997;48.448;8.924;2023-08-17T12:15:04;7.10;;;5.33;;
1991;SDS011;997;48.448;8.924;2023-08-17T12:17:30;5.37;;;4.90;;
1991;SDS011;997;48.448;8.924;2023-08-17T12:19:56;5.00;;;4.70;;
1991;SDS011;997;48.448;8.924;2023-08-17T12:22:24;5.23;;;4.50;;
1991;SDS011;997;48.448;8.924;2023-08-17T12:24:51;5.50;;;5.10;;
1991;SDS011;997;48.448;8.924;2023-08-17T12:27:17;5.97;;;5.47;;
1991;SDS011;997;48.448;8.924;2023-08-17T12:29:49;6.13;;;5.47;;
1991;SDS011;997;48.448;8.924;2023-08-17T12:32:17;5.57;;;5.10;;
1991;SDS011;997;48.448;8.924;2023-08-17T12:34:44;5.63;;;5.20;;
1991;SDS011;997;48.448;8.924;2023-08-17T12:37:11;7.17;;;5.40;;
1991;SDS011;997;48.448;8.924;2023-08-17T12:39:37;6.43;;;5.97;;
1991;SDS011;997;48.448;8.924;2023-08-17T12:42:04;6.33;;;5.70;;
1991;SDS011;997;48.448;8.924;2023-08-17T12:44:30;5.60;;;5.30;;
1991;SDS011;997;48.448;8.924;2023-08-17T12:46:56;5.03;;;4.63;;
1991;SDS011;997;48.448;8.924;2023-08-17T12:49:22;5.50;;;5.10;;
1991;SDS011;997;48.448;8.924;2023-08-17T12:51:48;8.63;;;5.77;;
1991;SDS011;997;48.448;8.924;2023-08-17T12:54:14;5.40;;;5.00;;
1991;SDS011;997;48.448;8.924;2023-08-17T12:56:40;5.40;;;4.80;;
1991;SDS011;997;48.448;8.924;2023-08-17T12:59:06;5.97;;;5.47;;
1991;SDS011;997;48.448;8.924;2023-08-17T13:01:31;5.60;;;5.20;;
1991;SDS011;997;48.448;8.924;2023-08-17T13:03:57;6.23;;;5.63;;
1991;SDS011;997;48.448;8.924;2023-08-17T13:06:23;6.23;;;5.63;;
1991;SDS011;997;48.448;8.924;2023-08-17T13:08:49;6.00;;;5.40;;
1991;SDS011;997;48.448;8.924;2023-08-17T13:11:14;7.77;;;5.77;;
1991;SDS011;997;48.448;8.924;2023-08-17T13:13:40;6.27;;;5.77;;
1991;SDS011;997;48.448;8.924;2023-08-17T13:16:06;5.60;;;5.10;;
1991;SDS011;997;48.448;8.924;2023-08-17T13:18:31;6.47;;;5.93;;
1991;SDS011;997;48.448;8.924;2023-08-17T13:20:57;5.60;;;5.10;;
1991;SDS011;997;48.448;8.924;2023-08-17T13:23:23;6.30;;;5.40;;
1991;SDS011;997;48.448;8.924;2023-08-17T13:25:48;5.70;;;5.30;;
1991;SDS011;997;48.448;8.924;2023-08-17T13:28:14;6.63;;;5.80;;
1991;SDS011;997;48.448;8.924;2023-08-17T13:30:40;7.27;;;6.67;;
1991;SDS011;997;48.448;8.924;2023-08-17T13:33:06;6.67;;;5.70;;
1991;SDS011;997;48.448;8.924;2023-08-17T13:35:32;7.23;;;6.63;;
1991;SDS011;997;48.448;8.924;2023-08-17T13:37:58;6.97;;;6.10;;
1991;SDS011;997;48.448;8.924;2023-08-17T13:40:24;6.13;;;5.67;;
1991;SDS011;997;48.448;8.924;2023-08-17T13:42:49;7.47;;;6.87;;
1991;SDS011;997;48.448;8.924;2023-08-17T13:45:15;7.43;;;6.03;;
1991;SDS011;997;48.448;8.924;2023-08-17T13:47:41;6.63;;;6.13;;
1991;SDS011;997;48.448;8.924;2023-08-17T13:50:07;5.90;;;5.10;;
1991;SDS011;997;48.448;8.924;2023-08-17T13:52:33;6.20;;;5.60;;
1991;SDS011;997;48.448;8.924;2023-08-17T13:54:58;6.00;;;5.50;;
1991;SDS011;997;48.448;8.924;2023-08-17T13:57:24;6.50;;;6.10;;
1991;SDS011;997;48.448;8.924;2023-08-17T13:59:50;6.50;;;6.00;;
1991;SDS011;997;48.448;8.924;2023-08-17T14:02:16;6.03;;;5.60;;
1991;SDS011;997;48.448;8.924;2023-08-17T14:04:43;6.00;;;5.60;;
1991;SDS011;997;48.448;8.924;2023-08-17T14:07:08;5.60;;;5.10;;
1991;SDS011;997;48.448;8.924;2023-08-17T14:09:34;6.80;;;6.30;;
1991;SDS011;997;48.448;8.924;2023-08-17T14:12:00;6.73;;;6.03;;
1991;SDS011;997;48.448;8.924;2023-08-17T14:14:26;5.90;;;5.50;;
1991;SDS011;997;48.448;8.924;2023-08-17T14:16:52;5.80;;;5.40;;
1991;SDS011;997;48.448;8.924;2023-08-17T14:19:17;5.40;;;4.90;;
1991;SDS011;997;48.448;8.924;2023-08-17T14:21:43;6.33;;;5.83;;
1991;SDS011;997;48.448;8.924;2023-08-17T14:24:09;6.17;;;5.67;;
1991;SDS011;997;48.448;8.924;2023-08-17T14:26:35;6.50;;;6.10;;
1991;SDS011;997;48.448;8.924;2023-08-17T14:29:00;6.63;;;6.13;;
1991;SDS011;997;48.448;8.924;2023-08-17T14:31:26;6.37;;;5.87;;
1991;SDS011;997;48.448;8.924;2023-08-17T14:33:51;5.97;;;5.57;;
1991;SDS011;997;48.448;8.924;2023-08-17T14:36:17;5.43;;;5.03;;
1991;SDS011;997;48.448;8.924;2023-08-17T14:38:43;5.77;;;5.37;;
1991;SDS011;997;48.448;8.924;2023-08-17T14:41:08;6.63;;;5.50;;
1991;SDS011;997;48.448;8.924;2023-08-17T14:43:34;10.83;;;5.83;;
1991;SDS011;997;48.448;8.924;2023-08-17T14:46:00;5.70;;;5.30;;
1991;SDS011;997;48.448;8.924;2023-08-17T14:48:26;8.60;;;7.17;;
1991;SDS011;997;48.448;8.924;2023-08-17T14:50:51;5.50;;;5.10;;
1991;SDS011;997;48.448;8.924;2023-08-17T14:53:17;6.40;;;6.00;;
1991;SDS011;997;48.448;8.924;2023-08-17T14:55:43;7.40;;;6.03;;
1991;SDS011;997;48.448;8.924;2023-08-17T14:58:09;7.27;;;6.50;;
1991;SDS011;997;48.448;8.924;2023-08-17T15:00:34;6.50;;;5.90;;
1991;SDS011;997;48.448;8.924;2023-08-17T15:03:00;6.17;;;5.60;;
1991;SDS011;997;48.448;8.924;2023-08-17T15:05:26;6.93;;;6.00;;
1991;SDS011;997;48.448;8.924;2023-08-17T15:07:52;7.73;;;6.53;;
1991;SDS011;997;48.448;8.924;2023-08-17T15:10:18;5.70;;;5.20;;
1991;SDS011;997;48.448;8.924;2023-08-17T15:12:43;6.40;;;5.80;;
1991;SDS011;997;48.448;8.924;2023-08-17T15:15:09;6.03;;;5.53;;
1991;SDS011;997;48.448;8.924;2023-08-17T15:17:35;5.93;;;5.53;;
1991;SDS011;997;48.448;8.924;2023-08-17T15:20:02;7.03;;;5.77;;
1991;SDS011;997;48.448;8.924;2023-08-17T15:22:28;7.43;;;6.90;;
1991;SDS011;997;48.448;8.924;2023-08-17T15:24:54;6.53;;;6.03;;
1991;SDS011;997;48.448;8.924;2023-08-17T15:27:19;5.80;;;5.43;;
1991;SDS011;997;48.448;8.924;2023-08-17T15:29:45;4.90;;;4.53;;
1991;SDS011;997;48.448;8.924;2023-08-17T15:32:11;5.50;;;4.90;;
1991;SDS011;997;48.448;8.924;2023-08-17T15:34:36;5.23;;;4.77;;
1991;SDS011;997;48.448;8.924;2023-08-17T15:37:02;5.40;;;4.93;;
1991;SDS011;997;48.448;8.924;2023-08-17T15:39:28;5.43;;;4.97;;
1991;SDS011;997;48.448;8.924;2023-08-17T15:41:55;5.10;;;4.73;;
1991;SDS011;997;48.448;8.924;2023-08-17T15:44:21;5.53;;;5.03;;
1991;SDS011;997;48.448;8.924;2023-08-17T15:46:46;5.70;;;5.10;;
1991;SDS011;997;48.448;8.924;2023-08-17T15:49:13;4.90;;;4.40;;
1991;SDS011;997;48.448;8.924;2023-08-17T15:51:39;5.87;;;5.27;;
1991;SDS011;997;48.448;8.924;2023-08-17T15:54:05;5.27;;;4.87;;
1991;SDS011;997;48.448;8.924;2023-08-17T15:56:31;5.80;;;5.20;;
1991;SDS011;997;48.448;8.924;2023-08-17T15:58:57;8.13;;;4.60;;
1991;SDS011;997;48.448;8.924;2023-08-17T16:01:23;4.73;;;4.33;;
1991;SDS011;997;48.448;8.924;2023-08-17T16:03:48;6.10;;;5.00;;
1991;SDS011;997;48.448;8.924;2023-08-17T16:06:14;5.43;;;5.00;;
1991;SDS011;997;48.448;8.924;2023-08-17T16:08:41;5.87;;;5.47;;
1991;SDS011;997;48.448;8.924;2023-08-17T16:11:07;5.80;;;5.30;;
1991;SDS011;997;48.448;8.924;2023-08-17T16:13:33;6.30;;;5.83;;
1991;SDS011;997;48.448;8.924;2023-08-17T16:15:59;5.80;;;5.30;;
1991;SDS011;997;48.448;8.924;2023-08-17T16:18:24;6.30;;;4.67;;
1991;SDS011;997;48.448;8.924;2023-08-17T16:20:50;5.70;;;5.30;;
1991;SDS011;997;48.448;8.924;2023-08-17T16:23:16;6.50;;;6.00;;
1991;SDS011;997;48.448;8.924;2023-08-17T16:25:42;6.70;;;6.10;;
1991;SDS011;997;48.448;8.924;2023-08-17T16:28:08;9.40;;;6.03;;
1991;SDS011;997;48.448;8.924;2023-08-17T16:30:33;6.97;;;6.37;;
1991;SDS011;997;48.448;8.924;2023-08-17T16:33:01;6.83;;;6.23;;
1991;SDS011;997;48.448;8.924;2023-08-17T16:35:26;6.27;;;5.73;;
1991;SDS011;997;48.448;8.924;2023-08-17T16:37:52;5.93;;;5.53;;
1991;SDS011;997;48.448;8.924;2023-08-17T16:40:18;6.00;;;5.60;;
1991;SDS011;997;48.448;8.924;2023-08-17T16:42:43;6.67;;;6.17;;
1991;SDS011;997;48.448;8.924;2023-08-17T16:45:11;6.33;;;5.83;;
1991;SDS011;997;48.448;8.924;2023-08-17T16:47:37;7.33;;;6.07;;
1991;SDS011;997;48.448;8.924;2023-08-17T16:50:03;7.70;;;6.57;;
1991;SDS011;997;48.448;8.924;2023-08-17T16:52:29;6.97;;;6.40;;
1991;SDS011;997;48.448;8.924;2023-08-17T16:54:54;6.93;;;6.43;;
1991;SDS011;997;48.448;8.924;2023-08-17T16:57:20;7.37;;;6.70;;
1991;SDS011;997;48.448;8.924;2023-08-17T16:59:46;7.10;;;6.60;;
1991;SDS011;997;48.448;8.924;2023-08-17T17:02:11;7.23;;;6.63;;
1991;SDS011;997;48.448;8.924;2023-08-17T17:04:37;9.00;;;6.80;;
1991;SDS011;997;48.448;8.924;2023-08-17T17:07:03;7.43;;;6.80;;
1991;SDS011;997;48.448;8.924;2023-08-17T17:09:28;8.60;;;7.80;;
1991;SDS011;997;48.448;8.924;2023-08-17T17:11:54;7.73;;;7.20;;
1991;SDS011;997;48.448;8.924;2023-08-17T17:14:20;7.30;;;6.80;;
1991;SDS011;997;48.448;8.924;2023-08-17T17:16:45;7.27;;;6.53;;
1991;SDS011;997;48.448;8.924;2023-08-17T17:19:11;7.83;;;7.23;;
1991;SDS011;997;48.448;8.924;2023-08-17T17:21:37;9.37;;;8.27;;
1991;SDS011;997;48.448;8.924;2023-08-17T17:24:03;8.17;;;7.53;;
1991;SDS011;997;48.448;8.924;2023-08-17T17:26:29;8.17;;;7.47;;
1991;SDS011;997;48.448;8.924;2023-08-17T17:28:54;8.90;;;8.00;;
1991;SDS011;997;48.448;8.924;2023-08-17T17:31:20;7.60;;;7.00;;
1991;SDS011;997;48.448;8.924;2023-08-17T17:33:46;7.40;;;6.90;;
1991;SDS011;997;48.448;8.924;2023-08-17T17:36:11;7.10;;;6.60;;
1991;SDS011;997;48.448;8.924;2023-08-17T17:38:37;7.73;;;7.13;;
1991;SDS011;997;48.448;8.924;2023-08-17T17:41:03;7.50;;;6.80;;
1991;SDS011;997;48.448;8.924;2023-08-17T17:43:29;7.27;;;6.77;;
1991;SDS011;997;48.448;8.924;2023-08-17T17:45:54;8.40;;;7.53;;
1991;SDS011;997;48.448;8.924;2023-08-17T17:48:20;7.50;;;6.90;;
1991;SDS011;997;48.448;8.924;2023-08-17T17:50:46;11.20;;;8.33;;
1991;SDS011;997;48.448;8.924;2023-08-17T17:53:11;7.40;;;6.90;;
1991;SDS011;997;48.448;8.924;2023-08-17T17:55:37;8.20;;;7.60;;
1991;SDS011;997;48.448;8.924;2023-08-17T17:58:03;7.20;;;6.70;;
1991;SDS011;997;48.448;8.924;2023-08-17T18:00:30;8.27;;;7.57;;
1991;SDS011;997;48.448;8.924;2023-08-17T18:03:18;8.33;;;7.50;;
1991;SDS011;997;48.448;8.924;2023-08-17T18:05:43;8.03;;;7.53;;
1991;SDS011;997;48.448;8.924;2023-08-17T18:08:10;8.80;;;8.00;;
1991;SDS011;997;48.448;8.924;2023-08-17T18:10:36;8.20;;;7.60;;
1991;SDS011;997;48.448;8.924;2023-08-17T18:13:03;7.53;;;6.83;;
1991;SDS011;997;48.448;8.924;2023-08-17T18:15:32;8.67;;;7.83;;
1991;SDS011;997;48.448;8.924;2023-08-17T18:17:59;8.30;;;7.50;;
1991;SDS011;997;48.448;8.924;2023-08-17T18:20:25;12.00;;;7.97;;
1991;SDS011;997;48.448;8.924;2023-08-17T18:22:50;8.50;;;7.70;;
1991;SDS011;997;48.448;8.924;2023-08-17T18:25:16;9.00;;;8.30;;
1991;SDS011;997;48.448;8.924;2023-08-17T18:27:42;13.13;;;7.07;;
1991;SDS011;997;48.448;8.924;2023-08-17T18:30:08;8.23;;;7.43;;
1991;SDS011;997;48.448;8.924;2023-08-17T18:32:35;7.70;;;7.10;;
1991;SDS011;997;48.448;8.924;2023-08-17T18:35:01;7.83;;;7.17;;
1991;SDS011;997;48.448;8.924;2023-08-17T18:37:27;7.43;;;6.83;;
1991;SDS011;997;48.448;8.924;2023-08-17T18:39:53;7.23;;;6.50;;
1991;SDS011;997;48.448;8.924;2023-08-17T18:42:20;11.83;;;8.57;;
1991;SDS011;997;48.448;8.924;2023-08-17T18:44:46;9.30;;;8.50;;
1991;SDS011;997;48.448;8.924;2023-08-17T18:47:12;7.87;;;7.27;;
1991;SDS011;997;48.448;8.924;2023-08-17T18:49:38;8.53;;;7.63;;
1991;SDS011;997;48.448;8.924;2023-08-17T18:52:04;8.80;;;7.20;;
1991;SDS011;997;48.448;8.924;2023-08-17T18:54:32;8.37;;;7.77;;
1991;SDS011;997;48.448;8.924;2023-08-17T18:56:57;7.47;;;6.90;;
1991;SDS011;997;48.448;8.924;2023-08-17T18:59:23;8.13;;;7.33;;
1991;SDS011;997;48.448;8.924;2023-08-17T19:01:49;8.37;;;7.27;;
1991;SDS011;997;48.448;8.924;2023-08-17T19:04:14;7.43;;;6.93;;
1991;SDS011;997;48.448;8.924;2023-08-17T19:06:40;7.80;;;7.20;;
1991;SDS011;997;48.448;8.924;2023-08-17T19:09:06;7.50;;;6.90;;
1991;SDS011;997;48.448;8.924;2023-08-17T19:11:32;7.03;;;6.43;;
1991;SDS011;997;48.448;8.924;2023-08-17T19:13:57;7.60;;;6.90;;
1991;SDS011;997;48.448;8.924;2023-08-17T19:16:23;7.10;;;6.50;;
1991;SDS011;997;48.448;8.924;2023-08-17T19:18:49;6.50;;;6.00;;
1991;SDS011;997;48.448;8.924;2023-08-17T19:21:15;7.67;;;7.00;;
1991;SDS011;997;48.448;8.924;2023-08-17T19:23:41;6.97;;;6.47;;
1991;SDS011;997;48.448;8.924;2023-08-17T19:26:08;8.67;;;7.87;;
1991;SDS011;997;48.448;8.924;2023-08-17T19:28:34;7.60;;;6.80;;
1991;SDS011;997;48.448;8.924;2023-08-17T19:31:00;7.90;;;7.20;;
1991;SDS011;997;48.448;8.924;2023-08-17T19:33:26;7.70;;;7.03;;
1991;SDS011;997;48.448;8.924;2023-08-17T19:35:51;7.57;;;6.97;;
1991;SDS011;997;48.448;8.924;2023-08-17T19:38:17;7.10;;;6.50;;
1991;SDS011;997;48.448;8.924;2023-08-17T19:40:43;8.23;;;7.03;;